sensor_id;sensor_type;location;lat;lon;timestamp;pressure;altitude;pressure_sealevel;temperature;humidity
73016;BME280;61893;50.074;14.440;2022-07-11T00:01:41;98919.34;;;14.91;58.13
73016;BME280;61893;50.074;14.440;2022-07-11T00:04:32;98925.03;;;14.87;58.35
73016;BME280;61893;50.074;14.440;2022-07-11T00:07:05;98919.53;;;14.81;58.40
73016;BME280;61893;50.074;14.440;2022-07-11T00:09:47;98914.53;;;14.70;58.81
73016;BME280;61893;50.074;14.440;2022-07-11T00:12:22;98916.19;;;14.71;58.93
73016;BME280;61893;50.074;14.440;2022-07-11T00:14:52;98912.03;;;14.68;59.00
73016;BME280;61893;50.074;14.440;2022-07-11T00:17:22;98918.03;;;14.70;59.08
73016;BME280;61893;50.074;14.440;2022-07-11T00:20:03;98924.59;;;14.59;59.43
73016;BME280;61893;50.074;14.440;2022-07-11T00:22:32;98917.22;;;14.53;59.75
73016;BME280;61893;50.074;14.440;2022-07-11T00:26:06;98915.19;;;14.47;60.02
73016;BME280;61893;50.074;14.440;2022-07-11T00:29:32;98917.38;;;14.43;60.07
73016;BME280;61893;50.074;14.440;2022-07-11T00:32:31;98915.03;;;14.40;60.29
73016;BME280;61893;50.074;14.440;2022-07-11T00:35:09;98920.88;;;14.28;60.46
73016;BME280;61893;50.074;14.440;2022-07-11T00:38:03;98911.00;;;14.36;60.47
73016;BME280;61893;50.074;14.440;2022-07-11T00:41:09;98913.03;;;14.26;60.89
73016;BME280;61893;50.074;14.440;2022-07-11T00:44:31;98903.63;;;14.30;60.80
73016;BME280;61893;50.074;14.440;2022-07-11T00:47:50;98897.13;;;14.25;60.82
73016;BME280;61893;50.074;14.440;2022-07-11T00:50:40;98893.44;;;14.17;60.83
73016;BME280;61893;50.074;14.440;2022-07-11T00:53:58;98894.28;;;14.18;61.32
73016;BME280;61893;50.074;14.440;2022-07-11T00:57:19;98885.41;;;14.17;61.26
73016;BME280;61893;50.074;14.440;2022-07-11T01:00:22;98887.75;;;14.12;61.45
73016;BME280;61893;50.074;14.440;2022-07-11T01:03:05;98887.59;;;14.06;61.65
73016;BME280;61893;50.074;14.440;2022-07-11T01:06:07;98891.44;;;14.03;61.90
73016;BME280;61893;50.074;14.440;2022-07-11T01:11:27;98897.28;;;14.07;61.77
73016;BME280;61893;50.074;14.440;2022-07-11T01:13:54;98894.44;;;14.00;62.06
73016;BME280;61893;50.074;14.440;2022-07-11T01:16:21;98894.91;;;13.95;62.12
73016;BME280;61893;50.074;14.440;2022-07-11T01:19:09;98886.88;;;13.87;62.19
73016;BME280;61893;50.074;14.440;2022-07-11T01:21:54;98895.91;;;13.86;62.37
73016;BME280;61893;50.074;14.440;2022-07-11T01:24:49;98889.06;;;13.84;62.74
73016;BME280;61893;50.074;14.440;2022-07-11T01:27:30;98897.09;;;14.00;61.89
73016;BME280;61893;50.074;14.440;2022-07-11T01:30:15;98896.44;;;13.98;62.21
73016;BME280;61893;50.074;14.440;2022-07-11T01:32:44;98891.75;;;13.92;62.57
73016;BME280;61893;50.074;14.440;2022-07-11T01:35:20;98894.41;;;13.84;62.79
73016;BME280;61893;50.074;14.440;2022-07-11T01:38:21;98895.22;;;13.84;62.54
73016;BME280;61893;50.074;14.440;2022-07-11T01:40:55;98905.94;;;13.92;62.49
73016;BME280;61893;50.074;14.440;2022-07-11T01:43:40;98904.28;;;13.83;62.56
73016;BME280;61893;50.074;14.440;2022-07-11T01:46:06;98901.44;;;13.93;62.43
73016;BME280;61893;50.074;14.440;2022-07-11T01:48:54;98900.59;;;13.92;62.63
73016;BME280;61893;50.074;14.440;2022-07-11T01:52:00;98901.41;;;13.85;63.33
73016;BME280;61893;50.074;14.440;2022-07-11T01:55:22;98900.06;;;13.72;63.68
73016;BME280;61893;50.074;14.440;2022-07-11T01:58:59;98904.44;;;13.73;63.83
73016;BME280;61893;50.074;14.440;2022-07-11T02:01:57;98903.00;;;13.53;64.62
73016;BME280;61893;50.074;14.440;2022-07-11T02:05:06;98896.03;;;13.60;64.46
73016;BME280;61893;50.074;14.440;2022-07-11T02:07:46;98906.84;;;13.50;64.74
73016;BME280;61893;50.074;14.440;2022-07-11T02:10:33;98899.03;;;13.57;64.74
73016;BME280;61893;50.074;14.440;2022-07-11T02:13:15;98898.53;;;13.54;64.58
73016;BME280;61893;50.074;14.440;2022-07-11T02:15:49;98901.53;;;13.59;64.62
73016;BME280;61893;50.074;14.440;2022-07-11T02:18:43;98903.88;;;13.70;64.48
73016;BME280;61893;50.074;14.440;2022-07-11T02:21:27;98899.69;;;13.51;64.74
73016;BME280;61893;50.074;14.440;2022-07-11T02:24:12;98904.50;;;13.47;64.97
73016;BME280;61893;50.074;14.440;2022-07-11T02:26:48;98905.63;;;13.37;65.37
73016;BME280;61893;50.074;14.440;2022-07-11T02:29:37;98903.28;;;13.42;65.06
73016;BME280;61893;50.074;14.440;2022-07-11T02:32:11;98901.66;;;13.49;64.74
73016;BME280;61893;50.074;14.440;2022-07-11T02:34:38;98900.34;;;13.53;64.97
73016;BME280;61893;50.074;14.440;2022-07-11T02:37:07;98905.81;;;13.43;65.23
73016;BME280;61893;50.074;14.440;2022-07-11T02:39:43;98900.19;;;13.55;64.74
73016;BME280;61893;50.074;14.440;2022-07-11T02:42:13;98897.84;;;13.51;64.96
73016;BME280;61893;50.074;14.440;2022-07-11T02:45:07;98902.50;;;13.49;65.11
73016;BME280;61893;50.074;14.440;2022-07-11T02:48:19;98895.31;;;13.50;65.14
73016;BME280;61893;50.074;14.440;2022-07-11T02:52:31;98904.50;;;13.47;65.33
73016;BME280;61893;50.074;14.440;2022-07-11T02:55:54;98901.91;;;13.29;65.94
73016;BME280;61893;50.074;14.440;2022-07-11T02:59:42;98909.84;;;13.39;65.63
73016;BME280;61893;50.074;14.440;2022-07-11T03:02:09;98908.47;;;13.35;65.80
73016;BME280;61893;50.074;14.440;2022-07-11T03:04:36;98902.28;;;13.35;66.00
73016;BME280;61893;50.074;14.440;2022-07-11T03:07:02;98909.50;;;13.42;65.55
73016;BME280;61893;50.074;14.440;2022-07-11T03:09:40;98916.66;;;13.34;66.00
73016;BME280;61893;50.074;14.440;2022-07-11T03:12:07;98913.38;;;13.48;65.54
73016;BME280;61893;50.074;14.440;2022-07-11T03:14:33;98910.47;;;13.41;65.84
73016;BME280;61893;50.074;14.440;2022-07-11T03:17:05;98919.97;;;13.36;65.92
73016;BME280;61893;50.074;14.440;2022-07-11T03:19:31;98916.16;;;13.38;65.98
73016;BME280;61893;50.074;14.440;2022-07-11T03:22:00;98916.88;;;13.48;65.80
73016;BME280;61893;50.074;14.440;2022-07-11T03:24:26;98911.97;;;13.36;66.26
73016;BME280;61893;50.074;14.440;2022-07-11T03:26:52;98911.63;;;13.31;66.34
73016;BME280;61893;50.074;14.440;2022-07-11T03:29:17;98916.38;;;13.45;65.63
73016;BME280;61893;50.074;14.440;2022-07-11T03:31:43;98919.03;;;13.45;65.76
73016;BME280;61893;50.074;14.440;2022-07-11T03:34:09;98920.38;;;13.49;65.73
73016;BME280;61893;50.074;14.440;2022-07-11T03:36:35;98917.53;;;13.50;65.67
73016;BME280;61893;50.074;14.440;2022-07-11T03:39:02;98918.44;;;13.59;65.35
73016;BME280;61893;50.074;14.440;2022-07-11T03:41:48;98920.53;;;13.47;65.70
73016;BME280;61893;50.074;14.440;2022-07-11T03:44:41;98919.53;;;13.48;65.58
73016;BME280;61893;50.074;14.440;2022-07-11T03:47:08;98921.41;;;13.56;65.30
73016;BME280;61893;50.074;14.440;2022-07-11T03:49:39;98919.72;;;13.55;65.69
73016;BME280;61893;50.074;14.440;2022-07-11T03:52:07;98917.22;;;13.54;65.33
73016;BME280;61893;50.074;14.440;2022-07-11T03:54:34;98915.56;;;13.61;65.30
73016;BME280;61893;50.074;14.440;2022-07-11T03:57:12;98917.22;;;13.62;65.21
73016;BME280;61893;50.074;14.440;2022-07-11T04:00:01;98920.13;;;13.68;65.17
73016;BME280;61893;50.074;14.440;2022-07-11T04:03:04;98926.97;;;13.71;65.11
73016;BME280;61893;50.074;14.440;2022-07-11T04:06:14;98928.94;;;13.61;65.40
73016;BME280;61893;50.074;14.440;2022-07-11T04:09:38;98932.13;;;13.64;65.26
73016;BME280;61893;50.074;14.440;2022-07-11T04:13:38;98928.06;;;13.52;65.72
73016;BME280;61893;50.074;14.440;2022-07-11T04:17:16;98931.09;;;13.57;65.71
73016;BME280;61893;50.074;14.440;2022-07-11T04:19:54;98936.50;;;13.65;65.29
73016;BME280;61893;50.074;14.440;2022-07-11T04:22:25;98937.13;;;13.67;65.34
73016;BME280;61893;50.074;14.440;2022-07-11T04:24:52;98936.50;;;13.65;65.36
73016;BME280;61893;50.074;14.440;2022-07-11T04:27:24;98932.94;;;13.65;65.41
73016;BME280;61893;50.074;14.440;2022-07-11T04:29:51;98926.97;;;13.71;65.11
73016;BME280;61893;50.074;14.440;2022-07-11T04:32:18;98929.94;;;13.60;65.37
73016;BME280;61893;50.074;14.440;2022-07-11T04:34:50;98930.47;;;13.71;64.97
73016;BME280;61893;50.074;14.440;2022-07-11T04:37:34;98937.31;;;13.66;64.98
73016;BME280;61893;50.074;14.440;2022-07-11T04:40:03;98939.16;;;13.65;65.05
73016;BME280;61893;50.074;14.440;2022-07-11T04:42:29;98935.28;;;13.60;65.16
73016;BME280;61893;50.074;14.440;2022-07-11T04:44:58;98936.47;;;13.57;65.02
73016;BME280;61893;50.074;14.440;2022-07-11T04:47:24;98931.78;;;13.67;65.08
73016;BME280;61893;50.074;14.440;2022-07-11T04:49:50;98932.16;;;13.72;64.48
73016;BME280;61893;50.074;14.440;2022-07-11T04:52:34;98945.81;;;13.61;64.78
73016;BME280;61893;50.074;14.440;2022-07-11T04:55:01;98941.31;;;13.70;64.74
73016;BME280;61893;50.074;14.440;2022-07-11T04:57:29;98939.00;;;13.75;64.47
73016;BME280;61893;50.074;14.440;2022-07-11T04:59:56;98940.06;;;13.82;64.10
73016;BME280;61893;50.074;14.440;2022-07-11T05:02:29;98940.31;;;13.63;64.53
73016;BME280;61893;50.074;14.440;2022-07-11T05:04:57;98942.63;;;13.58;64.48
73016;BME280;61893;50.074;14.440;2022-07-11T05:08:01;98951.81;;;13.55;64.84
73016;BME280;61893;50.074;14.440;2022-07-11T05:10:32;98952.28;;;13.50;64.64
73016;BME280;61893;50.074;14.440;2022-07-11T05:13:02;98960.38;;;13.67;64.05
73016;BME280;61893;50.074;14.440;2022-07-11T05:15:29;98955.41;;;13.80;63.51
73016;BME280;61893;50.074;14.440;2022-07-11T05:17:56;98958.28;;;13.95;62.99
73016;BME280;61893;50.074;14.440;2022-07-11T05:20:22;98969.00;;;13.95;62.44
73016;BME280;61893;50.074;14.440;2022-07-11T05:22:48;98962.16;;;14.01;62.28
73016;BME280;61893;50.074;14.440;2022-07-11T05:25:14;98965.03;;;14.24;61.75
73016;BME280;61893;50.074;14.440;2022-07-11T05:27:43;98969.56;;;14.48;61.06
73016;BME280;61893;50.074;14.440;2022-07-11T05:30:09;98967.53;;;14.33;60.83
73016;BME280;61893;50.074;14.440;2022-07-11T05:32:35;98969.91;;;14.45;60.79
73016;BME280;61893;50.074;14.440;2022-07-11T05:35:02;98970.38;;;14.15;60.67
73016;BME280;61893;50.074;14.440;2022-07-11T05:37:30;98970.75;;;14.37;60.45
73016;BME280;61893;50.074;14.440;2022-07-11T05:40:01;98980.63;;;14.28;60.38
73016;BME280;61893;50.074;14.440;2022-07-11T05:42:28;98972.38;;;14.22;60.82
73016;BME280;61893;50.074;14.440;2022-07-11T05:44:54;98975.38;;;14.18;60.92
73016;BME280;61893;50.074;14.440;2022-07-11T05:47:29;98973.06;;;14.24;61.10
73016;BME280;61893;50.074;14.440;2022-07-11T05:49:56;98979.13;;;14.34;60.79
73016;BME280;61893;50.074;14.440;2022-07-11T05:52:28;98982.25;;;14.21;61.20
73016;BME280;61893;50.074;14.440;2022-07-11T05:55:08;98982.41;;;14.11;61.37
73016;BME280;61893;50.074;14.440;2022-07-11T05:58:29;98987.31;;;14.40;60.76
73016;BME280;61893;50.074;14.440;2022-07-11T06:01:24;98988.69;;;14.69;59.98
73016;BME280;61893;50.074;14.440;2022-07-11T06:03:53;98990.38;;;14.86;59.20
73016;BME280;61893;50.074;14.440;2022-07-11T06:06:27;98991.69;;;14.91;58.32
73016;BME280;61893;50.074;14.440;2022-07-11T06:09:02;98986.16;;;14.92;58.46
73016;BME280;61893;50.074;14.440;2022-07-11T06:11:28;98980.13;;;14.90;57.98
73016;BME280;61893;50.074;14.440;2022-07-11T06:14:20;98985.69;;;14.80;58.44
73016;BME280;61893;50.074;14.440;2022-07-11T06:17:00;98985.69;;;14.80;57.83
73016;BME280;61893;50.074;14.440;2022-07-11T06:19:27;98990.69;;;14.83;56.95
73016;BME280;61893;50.074;14.440;2022-07-11T06:21:55;98986.50;;;14.81;57.19
73016;BME280;61893;50.074;14.440;2022-07-11T06:24:28;98985.50;;;14.98;56.76
73016;BME280;61893;50.074;14.440;2022-07-11T06:27:12;98995.03;;;15.01;56.46
73016;BME280;61893;50.074;14.440;2022-07-11T06:29:55;98990.38;;;14.86;55.99
73016;BME280;61893;50.074;14.440;2022-07-11T06:32:38;98985.00;;;15.11;55.92
73016;BME280;61893;50.074;14.440;2022-07-11T06:35:08;98989.81;;;15.16;56.12
73016;BME280;61893;50.074;14.440;2022-07-11T06:37:56;98995.03;;;15.17;56.94
73016;BME280;61893;50.074;14.440;2022-07-11T06:40:23;98993.16;;;15.34;56.26
73016;BME280;61893;50.074;14.440;2022-07-11T06:42:49;98989.81;;;15.24;56.07
73016;BME280;61893;50.074;14.440;2022-07-11T06:45:30;98997.53;;;15.10;56.36
73016;BME280;61893;50.074;14.440;2022-07-11T06:48:10;98988.69;;;14.85;56.91
73016;BME280;61893;50.074;14.440;2022-07-11T06:50:36;98989.34;;;15.04;56.52
73016;BME280;61893;50.074;14.440;2022-07-11T06:53:02;98987.59;;;15.27;55.77
73016;BME280;61893;50.074;14.440;2022-07-11T06:55:28;98995.22;;;15.63;54.18
73016;BME280;61893;50.074;14.440;2022-07-11T06:58:08;98995.22;;;15.71;54.05
73016;BME280;61893;50.074;14.440;2022-07-11T07:00:35;98991.16;;;15.84;53.30
73016;BME280;61893;50.074;14.440;2022-07-11T07:04:36;98992.28;;;15.33;54.10
73016;BME280;61893;50.074;14.440;2022-07-11T07:07:09;98988.78;;;15.33;53.88
73016;BME280;61893;50.074;14.440;2022-07-11T07:09:43;98990.03;;;15.70;52.84
73016;BME280;61893;50.074;14.440;2022-07-11T07:12:11;98980.44;;;15.75;53.02
73016;BME280;61893;50.074;14.440;2022-07-11T07:14:41;98989.19;;;15.69;51.92
73016;BME280;61893;50.074;14.440;2022-07-11T07:17:24;98984.78;;;15.76;51.98
73016;BME280;61893;50.074;14.440;2022-07-11T07:19:54;98987.66;;;15.67;52.26
73016;BME280;61893;50.074;14.440;2022-07-11T07:22:24;98986.06;;;15.41;52.34
73016;BME280;61893;50.074;14.440;2022-07-11T07:25:14;98977.59;;;15.77;51.86
73016;BME280;61893;50.074;14.440;2022-07-11T07:27:58;98991.66;;;16.10;50.83
73016;BME280;61893;50.074;14.440;2022-07-11T07:30:28;98989.78;;;15.88;49.53
73016;BME280;61893;50.074;14.440;2022-07-11T07:32:55;98994.94;;;15.42;49.75
73016;BME280;61893;50.074;14.440;2022-07-11T07:35:21;98989.56;;;15.50;49.86
73016;BME280;61893;50.074;14.440;2022-07-11T07:38:12;98981.63;;;15.65;49.49
73016;BME280;61893;50.074;14.440;2022-07-11T07:40:41;98981.09;;;15.86;48.71
73016;BME280;61893;50.074;14.440;2022-07-11T07:43:08;98985.19;;;16.28;47.25
73016;BME280;61893;50.074;14.440;2022-07-11T07:45:40;98981.25;;;16.38;46.69
73016;BME280;61893;50.074;14.440;2022-07-11T07:48:09;98977.22;;;16.65;46.12
73016;BME280;61893;50.074;14.440;2022-07-11T07:51:04;98982.09;;;16.39;45.69
73016;BME280;61893;50.074;14.440;2022-07-11T07:53:33;98995.28;;;16.26;45.47
73016;BME280;61893;50.074;14.440;2022-07-11T07:56:05;98993.75;;;16.00;44.68
73016;BME280;61893;50.074;14.440;2022-07-11T07:58:35;98987.34;;;16.32;44.87
73016;BME280;61893;50.074;14.440;2022-07-11T08:01:18;98994.88;;;16.37;44.31
73016;BME280;61893;50.074;14.440;2022-07-11T08:04:04;98996.13;;;16.26;44.75
73016;BME280;61893;50.074;14.440;2022-07-11T08:06:56;98993.88;;;16.07;45.43
73016;BME280;61893;50.074;14.440;2022-07-11T08:09:35;98988.25;;;16.48;44.68
73016;BME280;61893;50.074;14.440;2022-07-11T08:12:10;98985.91;;;16.44;44.70
73016;BME280;61893;50.074;14.440;2022-07-11T08:14:37;98984.72;;;16.47;44.92
73016;BME280;61893;50.074;14.440;2022-07-11T08:17:12;98987.00;;;16.58;43.71
73016;BME280;61893;50.074;14.440;2022-07-11T08:19:47;98995.66;;;16.46;42.80
73016;BME280;61893;50.074;14.440;2022-07-11T08:22:28;98984.25;;;16.66;42.74
73016;BME280;61893;50.074;14.440;2022-07-11T08:24:58;98986.22;;;17.10;41.19
73016;BME280;61893;50.074;14.440;2022-07-11T08:27:36;98991.91;;;16.78;42.11
73016;BME280;61893;50.074;14.440;2022-07-11T08:30:05;98993.91;;;16.53;42.67
73016;BME280;61893;50.074;14.440;2022-07-11T08:32:41;98985.34;;;16.57;43.68
73016;BME280;61893;50.074;14.440;2022-07-11T08:35:51;98987.16;;;16.34;44.20
73016;BME280;61893;50.074;14.440;2022-07-11T08:38:28;98991.34;;;16.36;43.23
73016;BME280;61893;50.074;14.440;2022-07-11T08:41:01;98992.41;;;16.50;42.47
73016;BME280;61893;50.074;14.440;2022-07-11T08:43:55;98996.41;;;16.08;42.14
73016;BME280;61893;50.074;14.440;2022-07-11T08:46:43;98993.06;;;16.75;41.06
73016;BME280;61893;50.074;14.440;2022-07-11T08:49:57;98991.13;;;16.92;41.58
73016;BME280;61893;50.074;14.440;2022-07-11T08:52:34;99002.63;;;17.01;42.55
73016;BME280;61893;50.074;14.440;2022-07-11T08:55:21;99002.09;;;16.59;43.67
73016;BME280;61893;50.074;14.440;2022-07-11T08:58:09;99002.28;;;16.35;44.60
73016;BME280;61893;50.074;14.440;2022-07-11T09:00:54;99000.00;;;16.70;44.17
73016;BME280;61893;50.074;14.440;2022-07-11T09:04:08;99002.03;;;16.44;44.14
73016;BME280;61893;50.074;14.440;2022-07-11T09:08:07;98993.03;;;16.37;43.71
73016;BME280;61893;50.074;14.440;2022-07-11T09:11:57;98993.53;;;17.02;42.07
73016;BME280;61893;50.074;14.440;2022-07-11T09:14:47;98994.50;;;17.24;40.96
73016;BME280;61893;50.074;14.440;2022-07-11T09:17:41;98974.47;;;17.86;40.03
73016;BME280;61893;50.074;14.440;2022-07-11T09:20:27;98982.84;;;17.46;41.64
73016;BME280;61893;50.074;14.440;2022-07-11T09:23:23;98985.41;;;17.69;41.54
73016;BME280;61893;50.074;14.440;2022-07-11T09:26:22;98978.38;;;17.39;42.14
73016;BME280;61893;50.074;14.440;2022-07-11T09:29:21;98984.03;;;17.29;42.29
73016;BME280;61893;50.074;14.440;2022-07-11T09:32:12;98984.28;;;17.04;41.92
73016;BME280;61893;50.074;14.440;2022-07-11T09:35:04;98999.06;;;17.38;41.40
73016;BME280;61893;50.074;14.440;2022-07-11T09:38:05;98983.66;;;17.62;41.47
73016;BME280;61893;50.074;14.440;2022-07-11T09:40:38;98990.81;;;17.54;41.01
73016;BME280;61893;50.074;14.440;2022-07-11T09:43:50;98976.72;;;17.38;41.56
73016;BME280;61893;50.074;14.440;2022-07-11T09:46:32;98980.88;;;17.40;42.05
73016;BME280;61893;50.074;14.440;2022-07-11T09:49:34;98991.06;;;17.15;42.52
73016;BME280;61893;50.074;14.440;2022-07-11T09:52:18;98982.78;;;17.17;41.85
73016;BME280;61893;50.074;14.440;2022-07-11T09:55:02;98976.69;;;17.82;40.60
73016;BME280;61893;50.074;14.440;2022-07-11T09:58:09;98972.63;;;17.71;40.04
73016;BME280;61893;50.074;14.440;2022-07-11T10:00:51;98971.78;;;18.22;39.02
73016;BME280;61893;50.074;14.440;2022-07-11T10:03:38;98966.75;;;19.05;37.45
73016;BME280;61893;50.074;14.440;2022-07-11T10:06:28;98962.56;;;19.02;38.05
73016;BME280;61893;50.074;14.440;2022-07-11T10:08:57;98975.47;;;18.79;38.04
73016;BME280;61893;50.074;14.440;2022-07-11T10:11:59;98963.91;;;18.85;37.09
73016;BME280;61893;50.074;14.440;2022-07-11T10:14:47;98954.50;;;19.02;36.73
73016;BME280;61893;50.074;14.440;2022-07-11T10:27:18;98962.31;;;18.26;38.51
73016;BME280;61893;50.074;14.440;2022-07-11T10:29:52;98960.00;;;18.08;38.99
73016;BME280;61893;50.074;14.440;2022-07-11T10:33:06;98960.78;;;18.02;39.90
73016;BME280;61893;50.074;14.440;2022-07-11T10:35:53;98969.44;;;17.97;39.26
73016;BME280;61893;50.074;14.440;2022-07-11T10:41:42;98961.84;;;18.44;37.81
73016;BME280;61893;50.074;14.440;2022-07-11T10:44:51;98961.41;;;18.83;36.68
73016;BME280;61893;50.074;14.440;2022-07-11T10:47:34;98959.63;;;19.25;35.27
73016;BME280;61893;50.074;14.440;2022-07-11T10:50:36;98967.16;;;19.02;35.49
73016;BME280;61893;50.074;14.440;2022-07-11T10:53:26;98969.16;;;18.72;36.04
73016;BME280;61893;50.074;14.440;2022-07-11T10:56:34;98957.88;;;19.11;35.90
73016;BME280;61893;50.074;14.440;2022-07-11T10:59:31;98952.53;;;18.68;36.96
73016;BME280;61893;50.074;14.440;2022-07-11T11:03:10;98966.41;;;18.86;37.07
73016;BME280;61893;50.074;14.440;2022-07-11T11:05:52;98966.25;;;18.73;37.02
73016;BME280;61893;50.074;14.440;2022-07-11T11:12:00;98964.41;;;18.95;35.53
73016;BME280;61893;50.074;14.440;2022-07-11T11:18:42;98959.47;;;19.33;35.79
73016;BME280;61893;50.074;14.440;2022-07-11T11:50:26;98949.72;;;20.35;33.25
73016;BME280;61893;50.074;14.440;2022-07-11T11:53:18;98943.91;;;20.45;32.90
73016;BME280;61893;50.074;14.440;2022-07-11T11:55:59;98958.84;;;20.28;33.24
73016;BME280;61893;50.074;14.440;2022-07-11T11:58:26;98950.63;;;20.69;32.42
73016;BME280;61893;50.074;14.440;2022-07-11T12:01:04;98939.50;;;21.64;30.05
73016;BME280;61893;50.074;14.440;2022-07-11T12:03:55;98949.53;;;20.43;32.27
73016;BME280;61893;50.074;14.440;2022-07-11T12:06:23;98946.81;;;20.30;32.44
73016;BME280;61893;50.074;14.440;2022-07-11T12:08:50;98957.03;;;19.80;32.74
73016;BME280;61893;50.074;14.440;2022-07-11T12:11:22;98960.66;;;20.00;33.08
73016;BME280;61893;50.074;14.440;2022-07-11T12:14:02;98945.06;;;19.96;33.15
73016;BME280;61893;50.074;14.440;2022-07-11T12:17:05;98955.50;;;20.25;32.56
73016;BME280;61893;50.074;14.440;2022-07-11T12:20:03;98947.31;;;20.87;31.01
73016;BME280;61893;50.074;14.440;2022-07-11T12:22:42;98958.94;;;21.07;31.04
73016;BME280;61893;50.074;14.440;2022-07-11T12:25:48;98952.69;;;19.86;33.29
73016;BME280;61893;50.074;14.440;2022-07-11T12:31:13;98956.84;;;19.47;33.50
73016;BME280;61893;50.074;14.440;2022-07-11T12:57:23;98938.59;;;21.76;29.09
73016;BME280;61893;50.074;14.440;2022-07-11T12:59:57;98948.25;;;22.74;28.30
73016;BME280;61893;50.074;14.440;2022-07-11T13:03:31;98936.06;;;23.08;26.42
73016;BME280;61893;50.074;14.440;2022-07-11T13:06:19;98941.25;;;23.53;26.46
73016;BME280;61893;50.074;14.440;2022-07-11T13:09:08;98935.81;;;23.90;25.80
73016;BME280;61893;50.074;14.440;2022-07-11T13:11:52;98947.78;;;22.14;28.97
73016;BME280;61893;50.074;14.440;2022-07-11T13:14:44;98937.81;;;21.69;29.57
73016;BME280;61893;50.074;14.440;2022-07-11T13:17:41;98935.63;;;21.00;31.05
73016;BME280;61893;50.074;14.440;2022-07-11T13:20:37;98940.63;;;20.96;31.18
73016;BME280;61893;50.074;14.440;2022-07-11T13:23:04;98934.66;;;22.11;29.03
73016;BME280;61893;50.074;14.440;2022-07-11T13:25:54;98932.09;;;22.61;28.36
73016;BME280;61893;50.074;14.440;2022-07-11T13:28:23;98930.34;;;22.91;27.61
73016;BME280;61893;50.074;14.440;2022-07-11T13:30:59;98935.59;;;23.18;27.15
73016;BME280;61893;50.074;14.440;2022-07-11T13:34:07;98933.41;;;23.27;26.72
73016;BME280;61893;50.074;14.440;2022-07-11T13:36:55;98930.03;;;22.24;27.46
73016;BME280;61893;50.074;14.440;2022-07-11T13:39:22;98929.06;;;22.12;27.86
73016;BME280;61893;50.074;14.440;2022-07-11T13:41:49;98918.69;;;23.53;26.30
73016;BME280;61893;50.074;14.440;2022-07-11T13:44:15;98927.88;;;23.15;27.37
73016;BME280;61893;50.074;14.440;2022-07-11T13:46:44;98925.72;;;23.79;26.08
73016;BME280;61893;50.074;14.440;2022-07-11T13:49:10;98919.91;;;23.57;26.99
73016;BME280;61893;50.074;14.440;2022-07-11T13:51:48;98934.19;;;23.09;27.42
73016;BME280;61893;50.074;14.440;2022-07-11T13:54:17;98923.88;;;22.42;27.46
73016;BME280;61893;50.074;14.440;2022-07-11T13:56:44;98921.56;;;23.58;26.53
73016;BME280;61893;50.074;14.440;2022-07-11T13:59:10;98927.06;;;23.51;26.21
73016;BME280;61893;50.074;14.440;2022-07-11T14:01:43;98925.19;;;23.33;26.91
73016;BME280;61893;50.074;14.440;2022-07-11T14:04:12;98927.72;;;24.02;26.25
73016;BME280;61893;50.074;14.440;2022-07-11T14:07:04;98919.22;;;22.75;27.04
73016;BME280;61893;50.074;14.440;2022-07-11T14:09:37;98927.91;;;21.95;28.78
73016;BME280;61893;50.074;14.440;2022-07-11T14:12:04;98933.94;;;23.35;27.27
73016;BME280;61893;50.074;14.440;2022-07-11T14:15:04;98931.03;;;22.87;27.19
73016;BME280;61893;50.074;14.440;2022-07-11T14:17:46;98919.16;;;23.50;26.08
73016;BME280;61893;50.074;14.440;2022-07-11T14:20:33;98930.81;;;23.69;25.52
73016;BME280;61893;50.074;14.440;2022-07-11T14:23:04;98921.38;;;22.66;27.06
73016;BME280;61893;50.074;14.440;2022-07-11T14:25:44;98919.66;;;23.95;24.77
73016;BME280;61893;50.074;14.440;2022-07-11T14:28:18;98918.19;;;22.76;26.99
73016;BME280;61893;50.074;14.440;2022-07-11T14:30:45;98915.19;;;21.89;27.45
73016;BME280;61893;50.074;14.440;2022-07-11T14:33:14;98912.88;;;21.47;28.67
73016;BME280;61893;50.074;14.440;2022-07-11T14:35:56;98914.16;;;22.28;27.82
73016;BME280;61893;50.074;14.440;2022-07-11T14:38:24;98908.19;;;22.13;27.67
73016;BME280;61893;50.074;14.440;2022-07-11T14:41:14;98919.75;;;23.15;26.65
73016;BME280;61893;50.074;14.440;2022-07-11T14:43:44;98916.69;;;23.97;25.02
73016;BME280;61893;50.074;14.440;2022-07-11T14:46:12;98904.31;;;23.71;25.27
73016;BME280;61893;50.074;14.440;2022-07-11T14:48:42;98911.09;;;24.10;25.40
73016;BME280;61893;50.074;14.440;2022-07-11T14:51:09;98905.69;;;23.92;25.51
73016;BME280;61893;50.074;14.440;2022-07-11T14:53:45;98909.88;;;25.02;24.08
73016;BME280;61893;50.074;14.440;2022-07-11T14:56:17;98902.66;;;25.31;23.88
73016;BME280;61893;50.074;14.440;2022-07-11T14:58:43;98908.56;;;24.92;24.65
73016;BME280;61893;50.074;14.440;2022-07-11T15:01:10;98902.88;;;24.70;24.53
73016;BME280;61893;50.074;14.440;2022-07-11T15:04:23;98902.97;;;25.46;23.33
73016;BME280;61893;50.074;14.440;2022-07-11T15:06:59;98895.66;;;25.23;23.74
73016;BME280;61893;50.074;14.440;2022-07-11T15:09:46;98907.78;;;25.15;23.78
73016;BME280;61893;50.074;14.440;2022-07-11T15:12:38;98902.25;;;24.68;24.43
73016;BME280;61893;50.074;14.440;2022-07-11T15:15:06;98909.06;;;24.05;24.19
73016;BME280;61893;50.074;14.440;2022-07-11T15:17:32;98896.69;;;24.52;24.42
73016;BME280;61893;50.074;14.440;2022-07-11T15:20:02;98896.97;;;23.90;25.08
73016;BME280;61893;50.074;14.440;2022-07-11T15:22:45;98899.22;;;22.94;26.53
73016;BME280;61893;50.074;14.440;2022-07-11T15:25:13;98897.28;;;22.26;27.39
73016;BME280;61893;50.074;14.440;2022-07-11T15:27:40;98896.44;;;22.32;27.47
73016;BME280;61893;50.074;14.440;2022-07-11T15:30:08;98896.16;;;23.15;26.14